sensor_id;sensor_type;location;lat;lon;timestamp;pressure;altitude;pressure_sealevel;temperature;humidity
47738;BME280;33502;47.182;27.506;2022-07-09T00:00:43;100119.72;;;16.64;100.00
47738;BME280;33502;47.182;27.506;2022-07-09T00:03:09;100123.34;;;16.63;100.00
47738;BME280;33502;47.182;27.506;2022-07-09T00:05:35;100120.91;;;16.60;100.00
47738;BME280;33502;47.182;27.506;2022-07-09T00:08:00;100119.28;;;16.58;100.00
47738;BME280;33502;47.182;27.506;2022-07-09T00:10:26;100124.97;;;16.53;100.00
47738;BME280;33502;47.182;27.506;2022-07-09T00:12:52;100121.78;;;16.48;100.00
47738;BME280;33502;47.182;27.506;2022-07-09T00:15:18;100116.75;;;16.43;100.00
47738;BME280;33502;47.182;27.506;2022-07-09T00:17:44;100116.13;;;16.40;100.00
47738;BME280;33502;47.182;27.506;2022-07-09T00:20:10;100119.22;;;16.34;100.00
47738;BME280;33502;47.182;27.506;2022-07-09T00:22:36;100122.19;;;16.29;100.00
47738;BME280;33502;47.182;27.506;2022-07-09T00:25:02;100119.63;;;16.28;100.00
47738;BME280;33502;47.182;27.506;2022-07-09T00:27:28;100111.75;;;16.26;100.00
47738;BME280;33502;47.182;27.506;2022-07-09T00:29:54;100097.41;;;16.27;100.00
47738;BME280;33502;47.182;27.506;2022-07-09T00:32:20;100101.38;;;16.34;100.00
47738;BME280;33502;47.182;27.506;2022-07-09T00:34:45;100110.34;;;16.33;100.00
47738;BME280;33502;47.182;27.506;2022-07-09T00:37:12;100102.31;;;16.33;100.00
47738;BME280;33502;47.182;27.506;2022-07-09T00:39:38;100109.38;;;16.34;100.00
47738;BME280;33502;47.182;27.506;2022-07-09T00:42:04;100112.16;;;16.33;100.00
47738;BME280;33502;47.182;27.506;2022-07-09T00:44:31;100116.75;;;16.31;100.00
47738;BME280;33502;47.182;27.506;2022-07-09T00:46:56;100116.97;;;16.28;100.00
47738;BME280;33502;47.182;27.506;2022-07-09T00:49:23;100123.38;;;16.25;100.00
47738;BME280;33502;47.182;27.506;2022-07-09T00:51:49;100121.66;;;16.24;100.00
47738;BME280;33502;47.182;27.506;2022-07-09T00:54:16;100113.53;;;16.25;100.00
47738;BME280;33502;47.182;27.506;2022-07-09T00:56:42;100117.19;;;16.24;100.00
47738;BME280;33502;47.182;27.506;2022-07-09T00:59:09;100119.13;;;16.22;100.00
47738;BME280;33502;47.182;27.506;2022-07-09T01:01:39;100120.16;;;16.20;100.00
47738;BME280;33502;47.182;27.506;2022-07-09T01:04:06;100122.31;;;16.15;100.00
47738;BME280;33502;47.182;27.506;2022-07-09T01:06:32;100127.13;;;16.10;100.00
47738;BME280;33502;47.182;27.506;2022-07-09T01:09:03;100118.03;;;15.99;100.00
47738;BME280;33502;47.182;27.506;2022-07-09T01:11:30;100122.59;;;15.84;100.00
47738;BME280;33502;47.182;27.506;2022-07-09T01:13:56;100125.53;;;15.67;100.00
47738;BME280;33502;47.182;27.506;2022-07-09T01:16:31;100123.56;;;15.56;100.00
47738;BME280;33502;47.182;27.506;2022-07-09T01:18:57;100129.22;;;15.52;100.00
47738;BME280;33502;47.182;27.506;2022-07-09T01:21:23;100125.81;;;15.50;100.00
47738;BME280;33502;47.182;27.506;2022-07-09T01:23:49;100134.56;;;15.52;100.00
47738;BME280;33502;47.182;27.506;2022-07-09T01:26:16;100127.41;;;15.52;100.00
47738;BME280;33502;47.182;27.506;2022-07-09T01:28:42;100122.91;;;15.53;100.00
47738;BME280;33502;47.182;27.506;2022-07-09T01:31:08;100122.81;;;15.54;100.00
47738;BME280;33502;47.182;27.506;2022-07-09T01:33:33;100124.41;;;15.57;100.00
47738;BME280;33502;47.182;27.506;2022-07-09T01:35:59;100128.72;;;15.59;100.00
47738;BME280;33502;47.182;27.506;2022-07-09T01:38:25;100119.63;;;15.62;100.00
47738;BME280;33502;47.182;27.506;2022-07-09T01:40:51;100122.31;;;15.62;100.00
47738;BME280;33502;47.182;27.506;2022-07-09T01:43:17;100117.72;;;15.64;100.00
47738;BME280;33502;47.182;27.506;2022-07-09T01:45:42;100119.22;;;15.68;100.00
47738;BME280;33502;47.182;27.506;2022-07-09T01:48:08;100118.03;;;15.72;100.00
47738;BME280;33502;47.182;27.506;2022-07-09T01:50:34;100119.81;;;15.73;100.00
47738;BME280;33502;47.182;27.506;2022-07-09T01:53:00;100126.66;;;15.77;100.00
47738;BME280;33502;47.182;27.506;2022-07-09T01:55:26;100133.56;;;15.80;100.00
47738;BME280;33502;47.182;27.506;2022-07-09T01:57:52;100131.03;;;15.78;100.00
47738;BME280;33502;47.182;27.506;2022-07-09T02:00:18;100141.81;;;15.77;100.00
47738;BME280;33502;47.182;27.506;2022-07-09T02:02:46;100142.66;;;15.77;100.00
47738;BME280;33502;47.182;27.506;2022-07-09T02:05:12;100134.66;;;15.77;100.00
47738;BME280;33502;47.182;27.506;2022-07-09T02:07:38;100135.50;;;15.78;100.00
47738;BME280;33502;47.182;27.506;2022-07-09T02:10:04;100131.13;;;15.77;100.00
47738;BME280;33502;47.182;27.506;2022-07-09T02:12:30;100131.97;;;15.77;100.00
47738;BME280;33502;47.182;27.506;2022-07-09T02:14:56;100131.22;;;15.75;100.00
47738;BME280;33502;47.182;27.506;2022-07-09T02:17:22;100134.00;;;15.74;100.00
47738;BME280;33502;47.182;27.506;2022-07-09T02:19:48;100130.56;;;15.72;100.00
47738;BME280;33502;47.182;27.506;2022-07-09T02:22:13;100135.97;;;15.70;100.00
47738;BME280;33502;47.182;27.506;2022-07-09T02:24:39;100136.09;;;15.69;100.00
47738;BME280;33502;47.182;27.506;2022-07-09T02:27:05;100142.28;;;15.69;100.00
47738;BME280;33502;47.182;27.506;2022-07-09T02:29:32;100137.91;;;15.68;100.00
47738;BME280;33502;47.182;27.506;2022-07-09T02:31:58;100137.06;;;15.68;100.00
47738;BME280;33502;47.182;27.506;2022-07-09T02:34:24;100134.38;;;15.68;100.00
47738;BME280;33502;47.182;27.506;2022-07-09T02:36:51;100133.41;;;15.69;100.00
47738;BME280;33502;47.182;27.506;2022-07-09T02:39:17;100135.22;;;15.68;100.00
47738;BME280;33502;47.182;27.506;2022-07-09T02:41:43;100136.22;;;15.67;100.00
47738;BME280;33502;47.182;27.506;2022-07-09T02:44:09;100140.66;;;15.66;100.00
47738;BME280;33502;47.182;27.506;2022-07-09T02:46:35;100138.88;;;15.67;100.00
47738;BME280;33502;47.182;27.506;2022-07-09T02:49:01;100137.06;;;15.68;100.00
47738;BME280;33502;47.182;27.506;2022-07-09T02:51:28;100144.22;;;15.67;100.00
47738;BME280;33502;47.182;27.506;2022-07-09T02:53:53;100134.38;;;15.68;100.00
47738;BME280;33502;47.182;27.506;2022-07-09T02:56:19;100136.22;;;15.67;100.00
47738;BME280;33502;47.182;27.506;2022-07-09T02:58:45;100130.00;;;15.66;100.00
47738;BME280;33502;47.182;27.506;2022-07-09T03:01:11;100132.56;;;15.68;100.00
47738;BME280;33502;47.182;27.506;2022-07-09T03:03:37;100137.63;;;15.73;100.00
47738;BME280;33502;47.182;27.506;2022-07-09T03:06:03;100139.16;;;15.77;100.00
47738;BME280;33502;47.182;27.506;2022-07-09T03:08:29;100133.47;;;15.81;100.00
47738;BME280;33502;47.182;27.506;2022-07-09T03:10:55;100136.59;;;15.88;100.00
47738;BME280;33502;47.182;27.506;2022-07-09T03:13:21;100137.13;;;15.93;100.00
47738;BME280;33502;47.182;27.506;2022-07-09T03:15:46;100131.50;;;15.98;100.00
47738;BME280;33502;47.182;27.506;2022-07-09T03:18:12;100129.47;;;16.01;100.00
47738;BME280;33502;47.182;27.506;2022-07-09T03:20:38;100131.81;;;16.06;100.00
47738;BME280;33502;47.182;27.506;2022-07-09T03:23:05;100131.38;;;16.12;100.00
47738;BME280;33502;47.182;27.506;2022-07-09T03:25:31;100127.34;;;16.19;100.00
47738;BME280;33502;47.182;27.506;2022-07-09T03:27:57;100125.22;;;16.24;100.00
47738;BME280;33502;47.182;27.506;2022-07-09T03:30:23;100136.53;;;16.28;100.00
47738;BME280;33502;47.182;27.506;2022-07-09T03:32:50;100131.72;;;16.33;100.00
47738;BME280;33502;47.182;27.506;2022-07-09T03:35:16;100128.72;;;16.38;100.00
47738;BME280;33502;47.182;27.506;2022-07-09T03:37:42;100125.72;;;16.42;100.00
47738;BME280;33502;47.182;27.506;2022-07-09T03:40:08;100127.22;;;16.47;100.00
47738;BME280;33502;47.182;27.506;2022-07-09T03:42:34;100133.00;;;16.53;100.00
47738;BME280;33502;47.182;27.506;2022-07-09T03:45:00;100134.50;;;16.57;100.00
47738;BME280;33502;47.182;27.506;2022-07-09T03:47:26;100138.53;;;16.63;100.00
47738;BME280;33502;47.182;27.506;2022-07-09T03:49:52;100129.22;;;16.69;100.00
47738;BME280;33502;47.182;27.506;2022-07-09T03:52:18;100127.84;;;16.76;100.00
47738;BME280;33502;47.182;27.506;2022-07-09T03:54:44;100130.00;;;16.83;100.00
47738;BME280;33502;47.182;27.506;2022-07-09T03:57:10;100136.47;;;16.92;100.00
47738;BME280;33502;47.182;27.506;2022-07-09T03:59:36;100138.69;;;16.98;100.00
47738;BME280;33502;47.182;27.506;2022-07-09T04:02:02;100137.19;;;17.07;100.00
47738;BME280;33502;47.182;27.506;2022-07-09T04:04:29;100133.97;;;17.15;100.00
47738;BME280;33502;47.182;27.506;2022-07-09T04:06:55;100142.41;;;17.21;100.00
47738;BME280;33502;47.182;27.506;2022-07-09T04:09:22;100130.25;;;17.29;100.00
47738;BME280;33502;47.182;27.506;2022-07-09T04:11:47;100128.00;;;17.35;100.00
47738;BME280;33502;47.182;27.506;2022-07-09T04:14:13;100123.91;;;17.42;100.00
47738;BME280;33502;47.182;27.506;2022-07-09T04:16:45;100132.22;;;17.51;100.00
47738;BME280;33502;47.182;27.506;2022-07-09T04:19:12;100135.16;;;17.59;100.00
47738;BME280;33502;47.182;27.506;2022-07-09T04:21:38;100123.88;;;17.67;100.00
47738;BME280;33502;47.182;27.506;2022-07-09T04:24:04;100131.56;;;17.71;100.00
47738;BME280;33502;47.182;27.506;2022-07-09T04:26:30;100126.81;;;17.75;100.00
47738;BME280;33502;47.182;27.506;2022-07-09T04:28:56;100126.22;;;17.83;100.00
47738;BME280;33502;47.182;27.506;2022-07-09T04:31:21;100117.53;;;17.92;100.00
47738;BME280;33502;47.182;27.506;2022-07-09T04:33:48;100125.69;;;18.02;100.00
47738;BME280;33502;47.182;27.506;2022-07-09T04:36:13;100127.44;;;18.14;100.00
47738;BME280;33502;47.182;27.506;2022-07-09T04:38:39;100131.63;;;18.29;100.00
47738;BME280;33502;47.182;27.506;2022-07-09T04:41:05;100131.50;;;18.42;98.48
47738;BME280;33502;47.182;27.506;2022-07-09T04:43:31;100122.25;;;18.57;97.20
47738;BME280;33502;47.182;27.506;2022-07-09T04:45:57;100127.84;;;18.77;95.81
47738;BME280;33502;47.182;27.506;2022-07-09T04:48:24;100122.00;;;18.94;94.44
47738;BME280;33502;47.182;27.506;2022-07-09T04:50:50;100120.25;;;19.16;92.98
47738;BME280;33502;47.182;27.506;2022-07-09T04:53:16;100122.97;;;19.48;91.70
47738;BME280;33502;47.182;27.506;2022-07-09T04:55:42;100128.03;;;19.63;89.50
47738;BME280;33502;47.182;27.506;2022-07-09T04:58:08;100136.59;;;19.89;88.30
47738;BME280;33502;47.182;27.506;2022-07-09T05:00:34;100133.06;;;20.09;86.42
47738;BME280;33502;47.182;27.506;2022-07-09T05:03:00;100138.13;;;20.24;85.15
47738;BME280;33502;47.182;27.506;2022-07-09T05:05:26;100132.91;;;20.53;83.78
47738;BME280;33502;47.182;27.506;2022-07-09T05:07:52;100138.16;;;20.85;81.64
47738;BME280;33502;47.182;27.506;2022-07-09T05:10:18;100127.66;;;21.23;78.57
47738;BME280;33502;47.182;27.506;2022-07-09T05:12:45;100125.31;;;21.78;75.65
47738;BME280;33502;47.182;27.506;2022-07-09T05:15:12;100119.53;;;22.40;72.14
47738;BME280;33502;47.182;27.506;2022-07-09T05:17:39;100125.91;;;22.76;70.63
47738;BME280;33502;47.182;27.506;2022-07-09T05:20:07;100130.28;;;23.15;67.61
47738;BME280;33502;47.182;27.506;2022-07-09T05:22:35;100130.06;;;23.26;66.52
47738;BME280;33502;47.182;27.506;2022-07-09T05:25:01;100124.13;;;23.40;66.28
47738;BME280;33502;47.182;27.506;2022-07-09T05:27:27;100117.66;;;23.51;65.13
47738;BME280;33502;47.182;27.506;2022-07-09T05:29:53;100117.41;;;23.62;64.87
47738;BME280;33502;47.182;27.506;2022-07-09T05:32:19;100120.13;;;23.62;64.66
47738;BME280;33502;47.182;27.506;2022-07-09T05:34:45;100127.47;;;23.88;63.38
47738;BME280;33502;47.182;27.506;2022-07-09T05:37:11;100120.19;;;24.33;61.70
47738;BME280;33502;47.182;27.506;2022-07-09T05:39:38;100118.16;;;24.61;60.90
47738;BME280;33502;47.182;27.506;2022-07-09T05:42:04;100118.28;;;24.86;59.90
47738;BME280;33502;47.182;27.506;2022-07-09T05:44:30;100122.78;;;25.19;58.81
47738;BME280;33502;47.182;27.506;2022-07-09T05:46:56;100115.56;;;25.28;59.06
47738;BME280;33502;47.182;27.506;2022-07-09T05:49:22;100121.53;;;25.40;57.97
47738;BME280;33502;47.182;27.506;2022-07-09T05:51:48;100117.13;;;25.64;57.77
47738;BME280;33502;47.182;27.506;2022-07-09T05:54:14;100114.78;;;25.61;57.86
47738;BME280;33502;47.182;27.506;2022-07-09T05:56:39;100111.53;;;25.65;57.38
47738;BME280;33502;47.182;27.506;2022-07-09T05:59:07;100115.28;;;25.72;57.08
47738;BME280;33502;47.182;27.506;2022-07-09T06:01:33;100112.41;;;25.82;57.24
47738;BME280;33502;47.182;27.506;2022-07-09T06:04:04;100106.28;;;25.55;56.96
47738;BME280;33502;47.182;27.506;2022-07-09T06:06:30;100112.34;;;25.33;57.55
47738;BME280;33502;47.182;27.506;2022-07-09T06:08:56;100115.84;;;25.17;58.67
47738;BME280;33502;47.182;27.506;2022-07-09T06:11:22;100115.66;;;25.10;58.90
47738;BME280;33502;47.182;27.506;2022-07-09T06:13:48;100114.72;;;24.85;59.39
47738;BME280;33502;47.182;27.506;2022-07-09T06:16:14;100121.94;;;25.19;58.76
47738;BME280;33502;47.182;27.506;2022-07-09T06:18:40;100110.00;;;25.79;57.20
47738;BME280;33502;47.182;27.506;2022-07-09T06:21:06;100103.91;;;26.26;55.49
47738;BME280;33502;47.182;27.506;2022-07-09T06:23:31;100118.50;;;26.17;55.19
47738;BME280;33502;47.182;27.506;2022-07-09T06:25:57;100115.59;;;26.27;55.18
47738;BME280;33502;47.182;27.506;2022-07-09T06:28:23;100118.53;;;26.73;54.55
47738;BME280;33502;47.182;27.506;2022-07-09T06:30:49;100110.78;;;26.62;53.13
47738;BME280;33502;47.182;27.506;2022-07-09T06:33:14;100111.03;;;26.19;54.19
47738;BME280;33502;47.182;27.506;2022-07-09T06:35:40;100116.28;;;26.04;54.71
47738;BME280;33502;47.182;27.506;2022-07-09T06:38:06;100104.59;;;26.04;54.94
47738;BME280;33502;47.182;27.506;2022-07-09T06:40:32;100107.25;;;26.36;53.17
47738;BME280;33502;47.182;27.506;2022-07-09T06:42:59;100100.03;;;26.76;51.93
47738;BME280;33502;47.182;27.506;2022-07-09T06:45:33;100101.44;;;27.81;49.70
47738;BME280;33502;47.182;27.506;2022-07-09T06:47:59;100100.06;;;28.38;48.39
47738;BME280;33502;47.182;27.506;2022-07-09T06:50:25;100098.72;;;27.81;48.06
47738;BME280;33502;47.182;27.506;2022-07-09T06:52:51;100103.16;;;26.49;51.72
47738;BME280;33502;47.182;27.506;2022-07-09T06:55:17;100097.47;;;26.11;53.63
47738;BME280;33502;47.182;27.506;2022-07-09T06:57:42;100091.75;;;26.62;53.03
47738;BME280;33502;47.182;27.506;2022-07-09T07:00:08;100096.44;;;26.84;51.81
47738;BME280;33502;47.182;27.506;2022-07-09T07:02:34;100083.63;;;26.53;52.59
47738;BME280;33502;47.182;27.506;2022-07-09T07:05:00;100086.69;;;27.52;50.63
47738;BME280;33502;47.182;27.506;2022-07-09T07:07:26;100078.81;;;28.04;49.64
47738;BME280;33502;47.182;27.506;2022-07-09T07:09:52;100094.91;;;28.73;48.26
47738;BME280;33502;47.182;27.506;2022-07-09T07:12:18;100078.91;;;29.79;45.25
47738;BME280;33502;47.182;27.506;2022-07-09T07:14:43;100083.53;;;30.77;43.93
47738;BME280;33502;47.182;27.506;2022-07-09T07:17:09;100083.91;;;31.22;42.10
47738;BME280;33502;47.182;27.506;2022-07-09T07:19:35;100082.97;;;31.50;41.70
47738;BME280;33502;47.182;27.506;2022-07-09T07:22:01;100091.59;;;31.73;40.52
47738;BME280;33502;47.182;27.506;2022-07-09T07:24:28;100083.38;;;31.87;40.51
47738;BME280;33502;47.182;27.506;2022-07-09T07:26:56;100093.84;;;31.36;40.80
47738;BME280;33502;47.182;27.506;2022-07-09T07:29:22;100081.00;;;31.30;40.39
47738;BME280;33502;47.182;27.506;2022-07-09T07:31:48;100084.22;;;31.87;40.68
47738;BME280;33502;47.182;27.506;2022-07-09T07:34:15;100083.56;;;32.38;38.86
47738;BME280;33502;47.182;27.506;2022-07-09T07:36:41;100100.63;;;32.47;38.72
47738;BME280;33502;47.182;27.506;2022-07-09T07:39:07;100084.41;;;32.39;38.92
47738;BME280;33502;47.182;27.506;2022-07-09T07:41:33;100104.59;;;30.83;40.88
47738;BME280;33502;47.182;27.506;2022-07-09T07:43:58;100098.75;;;29.52;43.59
47738;BME280;33502;47.182;27.506;2022-07-09T07:46:24;100101.75;;;28.69;45.35
47738;BME280;33502;47.182;27.506;2022-07-09T07:48:50;100096.28;;;28.09;46.14
47738;BME280;33502;47.182;27.506;2022-07-09T07:51:16;100093.63;;;29.63;44.62
47738;BME280;33502;47.182;27.506;2022-07-09T07:53:42;100087.03;;;30.64;41.60
47738;BME280;33502;47.182;27.506;2022-07-09T07:56:08;100092.00;;;30.89;41.35
47738;BME280;33502;47.182;27.506;2022-07-09T07:58:34;100094.34;;;31.67;40.00
47738;BME280;33502;47.182;27.506;2022-07-09T08:01:01;100087.63;;;31.89;39.19
47738;BME280;33502;47.182;27.506;2022-07-09T08:03:27;100084.06;;;30.52;41.08
47738;BME280;33502;47.182;27.506;2022-07-09T08:05:53;100083.44;;;30.98;41.20
47738;BME280;33502;47.182;27.506;2022-07-09T08:08:19;100085.81;;;31.15;41.05
47738;BME280;33502;47.182;27.506;2022-07-09T08:10:45;100069.56;;;31.07;40.32
47738;BME280;33502;47.182;27.506;2022-07-09T08:13:14;100078.53;;;32.15;39.51
47738;BME280;33502;47.182;27.506;2022-07-09T08:15:40;100078.00;;;33.24;38.52
47738;BME280;33502;47.182;27.506;2022-07-09T08:18:07;100068.03;;;34.11;36.65
47738;BME280;33502;47.182;27.506;2022-07-09T08:20:38;100067.41;;;34.35;35.14
47738;BME280;33502;47.182;27.506;2022-07-09T08:23:04;100069.72;;;35.05;34.79
47738;BME280;33502;47.182;27.506;2022-07-09T08:25:30;100063.44;;;35.16;33.85
47738;BME280;33502;47.182;27.506;2022-07-09T08:27:56;100069.31;;;34.89;33.97
47738;BME280;33502;47.182;27.506;2022-07-09T08:30:21;100068.44;;;35.38;34.08
47738;BME280;33502;47.182;27.506;2022-07-09T08:32:47;100053.31;;;35.71;33.38
47738;BME280;33502;47.182;27.506;2022-07-09T08:35:13;100058.47;;;35.37;32.93
47738;BME280;33502;47.182;27.506;2022-07-09T08:37:39;100056.09;;;34.24;34.33
47738;BME280;33502;47.182;27.506;2022-07-09T08:40:06;100065.59;;;34.03;34.44
47738;BME280;33502;47.182;27.506;2022-07-09T08:42:32;100058.16;;;34.47;34.81
47738;BME280;33502;47.182;27.506;2022-07-09T08:44:58;100049.69;;;34.86;33.59
47738;BME280;33502;47.182;27.506;2022-07-09T08:47:25;100050.69;;;35.22;32.87
47738;BME280;33502;47.182;27.506;2022-07-09T08:49:55;100052.66;;;35.15;32.59
47738;BME280;33502;47.182;27.506;2022-07-09T08:52:23;100038.34;;;34.94;33.11
47738;BME280;33502;47.182;27.506;2022-07-09T08:54:49;100041.06;;;34.45;33.28
47738;BME280;33502;47.182;27.506;2022-07-09T08:57:15;100034.84;;;34.13;33.10
47738;BME280;33502;47.182;27.506;2022-07-09T08:59:41;100049.88;;;33.60;34.85
47738;BME280;33502;47.182;27.506;2022-07-09T09:02:07;100024.84;;;33.75;33.62
47738;BME280;33502;47.182;27.506;2022-07-09T09:04:35;100035.41;;;31.71;35.84
47738;BME280;33502;47.182;27.506;2022-07-09T09:07:15;100036.84;;;32.85;36.67
47738;BME280;33502;47.182;27.506;2022-07-09T09:09:41;100023.13;;;33.99;33.29
47738;BME280;33502;47.182;27.506;2022-07-09T09:12:08;100021.25;;;34.74;32.20
47738;BME280;33502;47.182;27.506;2022-07-09T09:14:34;100029.13;;;35.19;31.35
47738;BME280;33502;47.182;27.506;2022-07-09T09:17:07;100030.41;;;32.60;33.25
47738;BME280;33502;47.182;27.506;2022-07-09T09:19:35;100027.97;;;31.45;35.01
47738;BME280;33502;47.182;27.506;2022-07-09T09:22:01;100010.38;;;30.31;37.53
47738;BME280;33502;47.182;27.506;2022-07-09T09:24:28;100034.25;;;29.87;38.49
47738;BME280;33502;47.182;27.506;2022-07-09T09:26:58;100018.31;;;30.25;38.34
47738;BME280;33502;47.182;27.506;2022-07-09T09:29:24;100014.00;;;30.86;38.03
47738;BME280;33502;47.182;27.506;2022-07-09T09:31:50;100027.56;;;30.59;38.71
47738;BME280;33502;47.182;27.506;2022-07-09T09:34:17;100023.63;;;29.99;38.74
47738;BME280;33502;47.182;27.506;2022-07-09T09:36:44;100030.06;;;30.19;38.73
47738;BME280;33502;47.182;27.506;2022-07-09T09:39:15;100019.63;;;31.53;37.32
47738;BME280;33502;47.182;27.506;2022-07-09T09:41:46;100021.03;;;31.42;37.44
47738;BME280;33502;47.182;27.506;2022-07-09T09:44:24;100018.94;;;30.62;39.03
47738;BME280;33502;47.182;27.506;2022-07-09T09:46:52;100016.94;;;29.73;40.48
47738;BME280;33502;47.182;27.506;2022-07-09T09:49:19;100010.13;;;29.19;41.00
47738;BME280;33502;47.182;27.506;2022-07-09T09:54:20;100008.13;;;28.70;42.03
47738;BME280;33502;47.182;27.506;2022-07-09T09:56:50;100014.44;;;28.56;42.14
47738;BME280;33502;47.182;27.506;2022-07-09T09:59:16;100015.25;;;28.56;42.68
47738;BME280;33502;47.182;27.506;2022-07-09T10:01:43;100010.41;;;28.52;42.25
47738;BME280;33502;47.182;27.506;2022-07-09T10:04:11;100008.19;;;28.47;42.85
47738;BME280;33502;47.182;27.506;2022-07-09T10:06:37;100007.66;;;28.66;43.35
47738;BME280;33502;47.182;27.506;2022-07-09T10:09:04;99999.84;;;28.63;42.03
47738;BME280;33502;47.182;27.506;2022-07-09T10:11:41;100008.59;;;28.29;42.99
47738;BME280;33502;47.182;27.506;2022-07-09T10:14:08;100001.25;;;27.85;43.82
47738;BME280;33502;47.182;27.506;2022-07-09T10:16:40;100002.84;;;27.79;43.87
47738;BME280;33502;47.182;27.506;2022-07-09T10:19:06;99992.25;;;28.95;42.84
47738;BME280;33502;47.182;27.506;2022-07-09T10:21:40;99985.91;;;29.31;41.06
47738;BME280;33502;47.182;27.506;2022-07-09T10:24:07;99991.47;;;29.01;41.08
47738;BME280;33502;47.182;27.506;2022-07-09T10:29:26;99989.97;;;30.75;38.83
47738;BME280;33502;47.182;27.506;2022-07-09T10:31:53;99986.84;;;30.84;38.26
47738;BME280;33502;47.182;27.506;2022-07-09T10:37:12;99985.13;;;29.87;39.76
47738;BME280;33502;47.182;27.506;2022-07-09T10:39:38;99986.72;;;30.44;38.67
47738;BME280;33502;47.182;27.506;2022-07-09T10:42:06;99979.78;;;31.03;37.73
47738;BME280;33502;47.182;27.506;2022-07-09T10:44:40;99977.69;;;31.39;36.69
47738;BME280;33502;47.182;27.506;2022-07-09T10:47:06;99973.00;;;32.13;35.70
47738;BME280;33502;47.182;27.506;2022-07-09T10:49:36;99971.66;;;32.87;34.30
47738;BME280;33502;47.182;27.506;2022-07-09T10:52:06;99970.59;;;33.45;33.47
47738;BME280;33502;47.182;27.506;2022-07-09T10:54:33;99954.00;;;33.08;33.16
47738;BME280;33502;47.182;27.506;2022-07-09T10:56:59;99962.00;;;32.26;34.53
47738;BME280;33502;47.182;27.506;2022-07-09T10:59:25;99965.91;;;31.38;36.12
47738;BME280;33502;47.182;27.506;2022-07-09T11:01:51;99965.56;;;30.67;36.95
47738;BME280;33502;47.182;27.506;2022-07-09T11:06:50;99963.03;;;29.82;38.11
47738;BME280;33502;47.182;27.506;2022-07-09T11:09:16;99970.66;;;29.65;38.24
47738;BME280;33502;47.182;27.506;2022-07-09T11:11:43;99966.53;;;29.47;38.56
47738;BME280;33502;47.182;27.506;2022-07-09T11:14:10;99970.84;;;29.35;38.43
47738;BME280;33502;47.182;27.506;2022-07-09T11:16:36;99978.25;;;29.41;39.55
47738;BME280;33502;47.182;27.506;2022-07-09T11:19:19;99968.22;;;29.20;39.74
47738;BME280;33502;47.182;27.506;2022-07-09T11:21:46;99964.00;;;29.18;39.61
47738;BME280;33502;47.182;27.506;2022-07-09T11:24:16;99967.38;;;29.20;39.26
47738;BME280;33502;47.182;27.506;2022-07-09T11:26:42;99974.72;;;29.47;38.59
47738;BME280;33502;47.182;27.506;2022-07-09T11:29:09;99968.56;;;29.67;39.43
47738;BME280;33502;47.182;27.506;2022-07-09T11:31:36;99970.09;;;31.08;36.91
47738;BME280;33502;47.182;27.506;2022-07-09T11:34:03;99971.38;;;30.43;37.18
47738;BME280;33502;47.182;27.506;2022-07-09T11:36:43;99968.31;;;29.83;37.18
47738;BME280;33502;47.182;27.506;2022-07-09T11:39:30;99961.81;;;30.26;37.95
47738;BME280;33502;47.182;27.506;2022-07-09T11:41:57;99974.47;;;29.71;38.63
47738;BME280;33502;47.182;27.506;2022-07-09T11:47:03;99975.47;;;28.25;40.85
47738;BME280;33502;47.182;27.506;2022-07-09T11:49:42;99970.09;;;27.87;41.52
47738;BME280;33502;47.182;27.506;2022-07-09T11:52:20;99970.06;;;27.58;41.74
47738;BME280;33502;47.182;27.506;2022-07-09T11:55:04;99967.84;;;27.61;41.96
47738;BME280;33502;47.182;27.506;2022-07-09T11:57:32;99965.19;;;27.68;41.27
47738;BME280;33502;47.182;27.506;2022-07-09T11:59:59;99958.47;;;27.79;41.83
47738;BME280;33502;47.182;27.506;2022-07-09T12:02:32;99956.81;;;28.07;41.37
47738;BME280;33502;47.182;27.506;2022-07-09T12:05:00;99949.38;;;28.16;41.32
47738;BME280;33502;47.182;27.506;2022-07-09T12:07:26;99950.91;;;28.19;42.21
47738;BME280;33502;47.182;27.506;2022-07-09T12:10:07;99943.22;;;28.07;41.33
47738;BME280;33502;47.182;27.506;2022-07-09T12:12:34;99936.47;;;27.88;41.75
47738;BME280;33502;47.182;27.506;2022-07-09T12:15:00;99944.56;;;27.73;41.80
47738;BME280;33502;47.182;27.506;2022-07-09T12:17:28;99938.00;;;27.68;41.39
47738;BME280;33502;47.182;27.506;2022-07-09T12:19:55;99927.59;;;27.57;41.52
47738;BME280;33502;47.182;27.506;2022-07-09T12:22:21;99930.13;;;27.58;42.76
47738;BME280;33502;47.182;27.506;2022-07-09T12:24:51;99933.50;;;27.75;43.06
47738;BME280;33502;47.182;27.506;2022-07-09T12:27:18;99931.91;;;27.66;42.88
47738;BME280;33502;47.182;27.506;2022-07-09T12:29:46;99936.59;;;27.72;41.83
47738;BME280;33502;47.182;27.506;2022-07-09T12:32:12;99924.13;;;27.78;41.17
47738;BME280;33502;47.182;27.506;2022-07-09T12:34:39;99920.47;;;27.85;41.47
47738;BME280;33502;47.182;27.506;2022-07-09T12:37:04;99918.13;;;27.97;41.74
47738;BME280;33502;47.182;27.506;2022-07-09T12:39:30;99921.03;;;28.10;41.38
47738;BME280;33502;47.182;27.506;2022-07-09T12:41:56;99902.56;;;28.06;42.24
47738;BME280;33502;47.182;27.506;2022-07-09T12:44:24;99903.69;;;27.97;43.35
47738;BME280;33502;47.182;27.506;2022-07-09T12:46:51;99908.03;;;27.91;44.10
47738;BME280;33502;47.182;27.506;2022-07-09T12:49:17;99919.06;;;28.19;43.44